sensor_id;sensor_type;location;lat;lon;timestamp;temperature;humidity
26595;DHT22;14238;49.496;8.154;2023-11-22T00:01:19;5.20;99.90
26595;DHT22;14238;49.496;8.154;2023-11-22T00:03:45;5.10;99.90
26595;DHT22;14238;49.496;8.154;2023-11-22T00:06:11;5.10;99.90
26595;DHT22;14238;49.496;8.154;2023-11-22T00:08:37;5.10;99.90
26595;DHT22;14238;49.496;8.154;2023-11-22T00:11:03;5.10;99.90
26595;DHT22;14238;49.496;8.154;2023-11-22T00:13:30;5.20;99.90
26595;DHT22;14238;49.496;8.154;2023-11-22T00:15:57;5.20;99.90
26595;DHT22;14238;49.496;8.154;2023-11-22T00:18:23;5.20;99.90
26595;DHT22;14238;49.496;8.154;2023-11-22T00:20:49;5.20;99.90
26595;DHT22;14238;49.496;8.154;2023-11-22T00:23:15;5.10;99.90
26595;DHT22;14238;49.496;8.154;2023-11-22T00:25:40;5.20;99.90
26595;DHT22;14238;49.496;8.154;2023-11-22T00:28:06;5.10;99.90
26595;DHT22;14238;49.496;8.154;2023-11-22T00:30:32;5.10;99.90
26595;DHT22;14238;49.496;8.154;2023-11-22T00:32:57;5.00;99.90
26595;DHT22;14238;49.496;8.154;2023-11-22T00:35:23;5.00;99.90
26595;DHT22;14238;49.496;8.154;2023-11-22T00:37:49;4.90;99.90
26595;DHT22;14238;49.496;8.154;2023-11-22T00:40:14;4.90;99.90
26595;DHT22;14238;49.496;8.154;2023-11-22T00:42:40;4.80;99.90
26595;DHT22;14238;49.496;8.154;2023-11-22T00:45:08;4.70;99.90
26595;DHT22;14238;49.496;8.154;2023-11-22T00:47:35;4.70;99.90
26595;DHT22;14238;49.496;8.154;2023-11-22T00:50:01;4.70;99.90
26595;DHT22;14238;49.496;8.154;2023-11-22T00:52:27;4.70;99.90
26595;DHT22;14238;49.496;8.154;2023-11-22T00:54:53;4.60;99.90
26595;DHT22;14238;49.496;8.154;2023-11-22T00:57:18;4.50;99.90
26595;DHT22;14238;49.496;8.154;2023-11-22T00:59:44;4.50;99.90
26595;DHT22;14238;49.496;8.154;2023-11-22T01:02:09;4.40;99.90
26595;DHT22;14238;49.496;8.154;2023-11-22T01:04:35;4.40;99.90
26595;DHT22;14238;49.496;8.154;2023-11-22T01:07:02;4.30;99.90
26595;DHT22;14238;49.496;8.154;2023-11-22T01:09:32;4.30;99.90
26595;DHT22;14238;49.496;8.154;2023-11-22T01:11:58;4.20;99.90
26595;DHT22;14238;49.496;8.154;2023-11-22T01:14:24;4.20;99.90
26595;DHT22;14238;49.496;8.154;2023-11-22T01:16:50;4.20;99.90
26595;DHT22;14238;49.496;8.154;2023-11-22T01:19:15;4.10;99.90
26595;DHT22;14238;49.496;8.154;2023-11-22T01:21:41;4.00;99.90
26595;DHT22;14238;49.496;8.154;2023-11-22T01:24:07;4.00;99.90
26595;DHT22;14238;49.496;8.154;2023-11-22T01:26:32;3.90;99.90
26595;DHT22;14238;49.496;8.154;2023-11-22T01:28:58;3.90;99.90
26595;DHT22;14238;49.496;8.154;2023-11-22T01:31:26;3.90;99.90
26595;DHT22;14238;49.496;8.154;2023-11-22T01:33:52;3.80;99.90
26595;DHT22;14238;49.496;8.154;2023-11-22T01:36:19;3.80;99.90
26595;DHT22;14238;49.496;8.154;2023-11-22T01:38:44;3.70;99.90
26595;DHT22;14238;49.496;8.154;2023-11-22T01:41:14;3.70;99.90
26595;DHT22;14238;49.496;8.154;2023-11-22T01:43:40;3.70;99.90
26595;DHT22;14238;49.496;8.154;2023-11-22T01:46:07;3.70;99.90
26595;DHT22;14238;49.496;8.154;2023-11-22T01:48:34;3.60;99.90
26595;DHT22;14238;49.496;8.154;2023-11-22T01:51:00;3.50;99.90
26595;DHT22;14238;49.496;8.154;2023-11-22T01:53:26;3.50;99.90
26595;DHT22;14238;49.496;8.154;2023-11-22T01:55:52;3.50;99.90
26595;DHT22;14238;49.496;8.154;2023-11-22T01:58:17;3.50;99.90
26595;DHT22;14238;49.496;8.154;2023-11-22T02:00:48;3.50;99.90
26595;DHT22;14238;49.496;8.154;2023-11-22T02:03:14;3.50;99.90
26595;DHT22;14238;49.496;8.154;2023-11-22T02:05:41;3.50;99.90
26595;DHT22;14238;49.496;8.154;2023-11-22T02:08:11;3.50;99.90
26595;DHT22;14238;49.496;8.154;2023-11-22T02:10:37;3.40;99.90
26595;DHT22;14238;49.496;8.154;2023-11-22T02:13:06;3.50;99.90
26595;DHT22;14238;49.496;8.154;2023-11-22T02:15:34;3.40;99.90
26595;DHT22;14238;49.496;8.154;2023-11-22T02:18:00;3.30;99.90
26595;DHT22;14238;49.496;8.154;2023-11-22T02:20:25;3.40;99.90
26595;DHT22;14238;49.496;8.154;2023-11-22T02:22:51;3.40;99.90
26595;DHT22;14238;49.496;8.154;2023-11-22T02:25:18;3.40;99.90
26595;DHT22;14238;49.496;8.154;2023-11-22T02:27:44;3.40;99.90
26595;DHT22;14238;49.496;8.154;2023-11-22T02:30:10;3.50;99.90
26595;DHT22;14238;49.496;8.154;2023-11-22T02:32:36;3.50;99.90
26595;DHT22;14238;49.496;8.154;2023-11-22T02:35:02;3.50;99.90
26595;DHT22;14238;49.496;8.154;2023-11-22T02:37:32;3.50;99.90
26595;DHT22;14238;49.496;8.154;2023-11-22T02:42:30;3.40;99.90
26595;DHT22;14238;49.496;8.154;2023-11-22T02:44:56;3.50;99.90
26595;DHT22;14238;49.496;8.154;2023-11-22T02:47:22;3.40;99.90
26595;DHT22;14238;49.496;8.154;2023-11-22T02:49:48;3.40;99.90
26595;DHT22;14238;49.496;8.154;2023-11-22T02:52:14;3.40;99.90
26595;DHT22;14238;49.496;8.154;2023-11-22T02:54:43;3.30;99.90
26595;DHT22;14238;49.496;8.154;2023-11-22T02:57:11;3.30;99.90
26595;DHT22;14238;49.496;8.154;2023-11-22T02:59:36;3.20;99.90
26595;DHT22;14238;49.496;8.154;2023-11-22T03:02:02;3.20;99.90
26595;DHT22;14238;49.496;8.154;2023-11-22T03:04:28;3.20;99.90
26595;DHT22;14238;49.496;8.154;2023-11-22T03:06:54;3.20;99.90
26595;DHT22;14238;49.496;8.154;2023-11-22T03:09:20;3.20;99.90
26595;DHT22;14238;49.496;8.154;2023-11-22T03:11:48;3.10;99.90
26595;DHT22;14238;49.496;8.154;2023-11-22T03:14:13;3.00;99.90
26595;DHT22;14238;49.496;8.154;2023-11-22T03:16:39;3.00;99.90
26595;DHT22;14238;49.496;8.154;2023-11-22T03:19:05;3.00;99.90
26595;DHT22;14238;49.496;8.154;2023-11-22T03:21:32;2.90;99.90
26595;DHT22;14238;49.496;8.154;2023-11-22T03:23:57;2.90;99.90
26595;DHT22;14238;49.496;8.154;2023-11-22T03:26:25;2.80;99.90
26595;DHT22;14238;49.496;8.154;2023-11-22T03:28:51;2.80;99.90
26595;DHT22;14238;49.496;8.154;2023-11-22T03:31:16;2.80;99.90
26595;DHT22;14238;49.496;8.154;2023-11-22T03:33:42;2.90;99.90
26595;DHT22;14238;49.496;8.154;2023-11-22T03:36:08;2.90;99.90
26595;DHT22;14238;49.496;8.154;2023-11-22T03:38:33;3.00;99.90
26595;DHT22;14238;49.496;8.154;2023-11-22T03:40:59;3.00;99.90
26595;DHT22;14238;49.496;8.154;2023-11-22T03:43:24;3.00;99.90
26595;DHT22;14238;49.496;8.154;2023-11-22T03:45:50;2.90;99.90
26595;DHT22;14238;49.496;8.154;2023-11-22T03:48:15;3.00;99.90
26595;DHT22;14238;49.496;8.154;2023-11-22T03:50:41;2.90;99.90
26595;DHT22;14238;49.496;8.154;2023-11-22T03:53:07;2.80;99.90
26595;DHT22;14238;49.496;8.154;2023-11-22T03:55:32;2.80;99.90
26595;DHT22;14238;49.496;8.154;2023-11-22T03:57:58;2.70;99.90
26595;DHT22;14238;49.496;8.154;2023-11-22T04:00:23;2.70;99.90
26595;DHT22;14238;49.496;8.154;2023-11-22T04:02:49;2.60;99.90
26595;DHT22;14238;49.496;8.154;2023-11-22T04:05:15;2.60;99.90
26595;DHT22;14238;49.496;8.154;2023-11-22T04:07:40;2.60;99.90
26595;DHT22;14238;49.496;8.154;2023-11-22T04:10:06;2.60;99.90
26595;DHT22;14238;49.496;8.154;2023-11-22T04:12:32;2.50;99.90
26595;DHT22;14238;49.496;8.154;2023-11-22T04:14:58;2.50;99.90
26595;DHT22;14238;49.496;8.154;2023-11-22T04:17:23;2.40;99.90
26595;DHT22;14238;49.496;8.154;2023-11-22T04:19:49;2.40;99.90
26595;DHT22;14238;49.496;8.154;2023-11-22T04:22:14;2.50;99.90
26595;DHT22;14238;49.496;8.154;2023-11-22T04:24:40;2.40;99.90
26595;DHT22;14238;49.496;8.154;2023-11-22T04:27:05;2.40;99.90
26595;DHT22;14238;49.496;8.154;2023-11-22T04:29:31;2.40;99.90
26595;DHT22;14238;49.496;8.154;2023-11-22T04:31:56;2.30;99.90
26595;DHT22;14238;49.496;8.154;2023-11-22T04:34:22;2.30;99.90
26595;DHT22;14238;49.496;8.154;2023-11-22T04:36:47;2.30;99.90
26595;DHT22;14238;49.496;8.154;2023-11-22T04:39:13;2.30;99.90
26595;DHT22;14238;49.496;8.154;2023-11-22T04:41:39;2.30;99.90
26595;DHT22;14238;49.496;8.154;2023-11-22T04:44:05;2.20;99.90
26595;DHT22;14238;49.496;8.154;2023-11-22T04:46:30;2.20;99.90
26595;DHT22;14238;49.496;8.154;2023-11-22T04:48:56;2.20;99.90
26595;DHT22;14238;49.496;8.154;2023-11-22T04:51:23;2.20;99.90
26595;DHT22;14238;49.496;8.154;2023-11-22T04:53:49;2.20;99.90
26595;DHT22;14238;49.496;8.154;2023-11-22T04:56:15;2.10;99.90
26595;DHT22;14238;49.496;8.154;2023-11-22T04:58:43;2.00;99.90
26595;DHT22;14238;49.496;8.154;2023-11-22T05:01:08;2.00;99.90
26595;DHT22;14238;49.496;8.154;2023-11-22T05:03:37;2.00;99.90
26595;DHT22;14238;49.496;8.154;2023-11-22T05:06:04;1.90;99.90
26595;DHT22;14238;49.496;8.154;2023-11-22T05:08:29;1.90;99.90
26595;DHT22;14238;49.496;8.154;2023-11-22T05:10:55;1.80;99.90
26595;DHT22;14238;49.496;8.154;2023-11-22T05:13:21;1.80;99.90
26595;DHT22;14238;49.496;8.154;2023-11-22T05:15:46;1.80;99.90
26595;DHT22;14238;49.496;8.154;2023-11-22T05:18:12;1.80;99.90
26595;DHT22;14238;49.496;8.154;2023-11-22T05:20:37;1.80;99.90
26595;DHT22;14238;49.496;8.154;2023-11-22T05:23:03;1.80;99.90
26595;DHT22;14238;49.496;8.154;2023-11-22T05:25:30;1.70;99.90
26595;DHT22;14238;49.496;8.154;2023-11-22T05:27:55;1.80;99.90
26595;DHT22;14238;49.496;8.154;2023-11-22T05:30:21;1.70;99.90
26595;DHT22;14238;49.496;8.154;2023-11-22T05:32:48;1.70;99.90
26595;DHT22;14238;49.496;8.154;2023-11-22T05:35:14;1.70;99.90
26595;DHT22;14238;49.496;8.154;2023-11-22T05:37:40;1.70;99.90
26595;DHT22;14238;49.496;8.154;2023-11-22T05:40:06;1.60;99.90
26595;DHT22;14238;49.496;8.154;2023-11-22T05:42:35;1.50;99.90
26595;DHT22;14238;49.496;8.154;2023-11-22T05:45:01;1.40;99.90
26595;DHT22;14238;49.496;8.154;2023-11-22T05:47:27;1.50;99.90
26595;DHT22;14238;49.496;8.154;2023-11-22T05:49:52;1.40;99.90
26595;DHT22;14238;49.496;8.154;2023-11-22T05:52:18;1.40;99.90
26595;DHT22;14238;49.496;8.154;2023-11-22T05:54:45;1.50;99.90
26595;DHT22;14238;49.496;8.154;2023-11-22T05:57:10;1.40;99.90
26595;DHT22;14238;49.496;8.154;2023-11-22T05:59:36;1.50;99.90
26595;DHT22;14238;49.496;8.154;2023-11-22T06:02:01;1.40;99.90
26595;DHT22;14238;49.496;8.154;2023-11-22T06:04:27;1.40;99.90
26595;DHT22;14238;49.496;8.154;2023-11-22T06:06:53;1.40;99.90
26595;DHT22;14238;49.496;8.154;2023-11-22T06:09:18;1.30;99.90
26595;DHT22;14238;49.496;8.154;2023-11-22T06:11:44;1.20;99.90
26595;DHT22;14238;49.496;8.154;2023-11-22T06:14:09;1.20;99.90
26595;DHT22;14238;49.496;8.154;2023-11-22T06:16:35;1.20;99.90
26595;DHT22;14238;49.496;8.154;2023-11-22T06:19:01;1.20;99.90
26595;DHT22;14238;49.496;8.154;2023-11-22T06:21:26;1.20;99.90
26595;DHT22;14238;49.496;8.154;2023-11-22T06:23:53;1.30;99.90
26595;DHT22;14238;49.496;8.154;2023-11-22T06:26:20;1.30;99.90
26595;DHT22;14238;49.496;8.154;2023-11-22T06:28:46;1.30;99.90
26595;DHT22;14238;49.496;8.154;2023-11-22T06:31:14;1.30;99.90
26595;DHT22;14238;49.496;8.154;2023-11-22T06:33:40;1.30;99.90
26595;DHT22;14238;49.496;8.154;2023-11-22T06:36:05;1.30;99.90
26595;DHT22;14238;49.496;8.154;2023-11-22T06:38:31;1.30;99.90
26595;DHT22;14238;49.496;8.154;2023-11-22T06:40:56;1.20;99.90
26595;DHT22;14238;49.496;8.154;2023-11-22T06:43:22;1.10;99.90
26595;DHT22;14238;49.496;8.154;2023-11-22T06:45:48;1.10;99.90
26595;DHT22;14238;49.496;8.154;2023-11-22T06:48:13;1.20;99.90
26595;DHT22;14238;49.496;8.154;2023-11-22T06:50:39;1.30;99.90
26595;DHT22;14238;49.496;8.154;2023-11-22T06:53:05;1.30;99.90
26595;DHT22;14238;49.496;8.154;2023-11-22T06:55:31;1.30;99.90
26595;DHT22;14238;49.496;8.154;2023-11-22T06:57:58;1.40;99.90
26595;DHT22;14238;49.496;8.154;2023-11-22T07:00:24;1.40;99.90
26595;DHT22;14238;49.496;8.154;2023-11-22T07:02:51;1.50;99.90
26595;DHT22;14238;49.496;8.154;2023-11-22T07:05:17;1.50;99.90
26595;DHT22;14238;49.496;8.154;2023-11-22T07:07:44;1.50;99.90
26595;DHT22;14238;49.496;8.154;2023-11-22T07:10:09;1.50;99.90
26595;DHT22;14238;49.496;8.154;2023-11-22T07:12:36;1.60;99.90
26595;DHT22;14238;49.496;8.154;2023-11-22T07:15:02;1.70;99.90
26595;DHT22;14238;49.496;8.154;2023-11-22T07:17:28;1.70;99.90
26595;DHT22;14238;49.496;8.154;2023-11-22T07:19:54;1.70;99.90
26595;DHT22;14238;49.496;8.154;2023-11-22T07:22:20;1.80;99.90
26595;DHT22;14238;49.496;8.154;2023-11-22T07:24:48;1.80;99.90
26595;DHT22;14238;49.496;8.154;2023-11-22T07:27:17;1.90;99.90
26595;DHT22;14238;49.496;8.154;2023-11-22T07:29:43;1.90;99.90
26595;DHT22;14238;49.496;8.154;2023-11-22T07:32:10;1.90;99.90
26595;DHT22;14238;49.496;8.154;2023-11-22T07:34:36;2.00;99.90
26595;DHT22;14238;49.496;8.154;2023-11-22T07:37:02;2.00;99.90
26595;DHT22;14238;49.496;8.154;2023-11-22T07:39:28;2.00;99.90
26595;DHT22;14238;49.496;8.154;2023-11-22T07:41:55;2.10;99.90
26595;DHT22;14238;49.496;8.154;2023-11-22T07:44:21;2.10;99.90
26595;DHT22;14238;49.496;8.154;2023-11-22T07:46:47;2.20;99.90
26595;DHT22;14238;49.496;8.154;2023-11-22T07:49:13;2.50;99.90
26595;DHT22;14238;49.496;8.154;2023-11-22T07:51:39;2.50;99.90
26595;DHT22;14238;49.496;8.154;2023-11-22T07:54:05;2.50;99.90
26595;DHT22;14238;49.496;8.154;2023-11-22T07:56:31;2.50;99.90
26595;DHT22;14238;49.496;8.154;2023-11-22T07:58:58;2.30;99.90
26595;DHT22;14238;49.496;8.154;2023-11-22T08:01:24;2.30;99.90
26595;DHT22;14238;49.496;8.154;2023-11-22T08:03:51;2.30;99.90
26595;DHT22;14238;49.496;8.154;2023-11-22T08:06:17;2.30;99.90
26595;DHT22;14238;49.496;8.154;2023-11-22T08:08:43;2.20;99.90
26595;DHT22;14238;49.496;8.154;2023-11-22T08:11:11;2.30;99.90
26595;DHT22;14238;49.496;8.154;2023-11-22T08:13:41;2.30;99.90
26595;DHT22;14238;49.496;8.154;2023-11-22T08:16:08;2.40;99.90
26595;DHT22;14238;49.496;8.154;2023-11-22T08:18:34;2.50;99.90
26595;DHT22;14238;49.496;8.154;2023-11-22T08:21:00;2.60;99.90
26595;DHT22;14238;49.496;8.154;2023-11-22T08:23:25;2.70;99.90
26595;DHT22;14238;49.496;8.154;2023-11-22T08:25:52;2.60;99.90
26595;DHT22;14238;49.496;8.154;2023-11-22T08:28:18;2.60;99.90
26595;DHT22;14238;49.496;8.154;2023-11-22T08:30:44;2.70;99.90
26595;DHT22;14238;49.496;8.154;2023-11-22T08:33:10;2.70;99.90
26595;DHT22;14238;49.496;8.154;2023-11-22T08:35:35;2.60;99.90
26595;DHT22;14238;49.496;8.154;2023-11-22T08:38:01;2.70;99.90
26595;DHT22;14238;49.496;8.154;2023-11-22T08:40:28;2.50;99.90
26595;DHT22;14238;49.496;8.154;2023-11-22T08:42:54;2.50;99.90
26595;DHT22;14238;49.496;8.154;2023-11-22T08:45:20;2.40;99.90
26595;DHT22;14238;49.496;8.154;2023-11-22T08:47:46;2.40;99.90
26595;DHT22;14238;49.496;8.154;2023-11-22T08:50:12;2.40;99.90
26595;DHT22;14238;49.496;8.154;2023-11-22T08:52:40;2.40;99.90
26595;DHT22;14238;49.496;8.154;2023-11-22T08:55:08;2.40;99.90
26595;DHT22;14238;49.496;8.154;2023-11-22T08:57:37;2.40;99.90
26595;DHT22;14238;49.496;8.154;2023-11-22T09:00:04;2.70;99.90
26595;DHT22;14238;49.496;8.154;2023-11-22T09:02:37;2.80;99.90
26595;DHT22;14238;49.496;8.154;2023-11-22T09:05:05;2.70;99.90
26595;DHT22;14238;49.496;8.154;2023-11-22T09:07:36;2.70;99.90
26595;DHT22;14238;49.496;8.154;2023-11-22T09:10:03;2.70;99.90
26595;DHT22;14238;49.496;8.154;2023-11-22T09:12:35;2.60;99.90
26595;DHT22;14238;49.496;8.154;2023-11-22T09:15:02;2.70;99.90
26595;DHT22;14238;49.496;8.154;2023-11-22T09:17:29;2.80;99.90
26595;DHT22;14238;49.496;8.154;2023-11-22T09:19:55;3.00;99.90
26595;DHT22;14238;49.496;8.154;2023-11-22T09:22:21;2.90;99.90
26595;DHT22;14238;49.496;8.154;2023-11-22T09:24:46;2.70;99.90
26595;DHT22;14238;49.496;8.154;2023-11-22T09:27:12;2.60;99.90
26595;DHT22;14238;49.496;8.154;2023-11-22T09:29:42;2.50;99.90
26595;DHT22;14238;49.496;8.154;2023-11-22T09:32:07;2.50;99.90
26595;DHT22;14238;49.496;8.154;2023-11-22T09:34:33;2.50;99.90
26595;DHT22;14238;49.496;8.154;2023-11-22T09:37:00;2.50;99.90
26595;DHT22;14238;49.496;8.154;2023-11-22T09:39:25;2.40;99.90
26595;DHT22;14238;49.496;8.154;2023-11-22T09:41:53;2.30;99.90
26595;DHT22;14238;49.496;8.154;2023-11-22T09:44:19;2.20;99.90
26595;DHT22;14238;49.496;8.154;2023-11-22T09:46:48;2.20;99.90
26595;DHT22;14238;49.496;8.154;2023-11-22T09:49:20;2.20;99.90
26595;DHT22;14238;49.496;8.154;2023-11-22T09:51:51;2.20;99.90
26595;DHT22;14238;49.496;8.154;2023-11-22T09:54:20;2.30;99.90
26595;DHT22;14238;49.496;8.154;2023-11-22T09:56:48;2.40;99.90
26595;DHT22;14238;49.496;8.154;2023-11-22T09:59:18;2.50;99.90
26595;DHT22;14238;49.496;8.154;2023-11-22T10:01:45;2.60;99.90
26595;DHT22;14238;49.496;8.154;2023-11-22T10:04:10;2.60;99.90
26595;DHT22;14238;49.496;8.154;2023-11-22T10:06:37;2.50;99.90
26595;DHT22;14238;49.496;8.154;2023-11-22T10:09:04;2.60;99.90
26595;DHT22;14238;49.496;8.154;2023-11-22T10:11:34;2.70;99.90
26595;DHT22;14238;49.496;8.154;2023-11-22T10:14:02;2.60;99.90
26595;DHT22;14238;49.496;8.154;2023-11-22T10:16:27;2.60;99.90
26595;DHT22;14238;49.496;8.154;2023-11-22T10:18:53;2.60;99.90
26595;DHT22;14238;49.496;8.154;2023-11-22T10:21:28;2.70;99.90
26595;DHT22;14238;49.496;8.154;2023-11-22T10:23:56;2.60;99.90
26595;DHT22;14238;49.496;8.154;2023-11-22T10:26:22;2.60;99.90
26595;DHT22;14238;49.496;8.154;2023-11-22T10:28:52;2.60;99.90
26595;DHT22;14238;49.496;8.154;2023-11-22T10:31:19;2.50;99.90
26595;DHT22;14238;49.496;8.154;2023-11-22T10:33:45;2.50;99.90
26595;DHT22;14238;49.496;8.154;2023-11-22T10:36:10;2.60;99.90
26595;DHT22;14238;49.496;8.154;2023-11-22T10:38:37;2.60;99.90
26595;DHT22;14238;49.496;8.154;2023-11-22T10:41:04;2.60;99.90
26595;DHT22;14238;49.496;8.154;2023-11-22T10:43:31;2.50;99.90
26595;DHT22;14238;49.496;8.154;2023-11-22T10:46:02;2.50;99.90
26595;DHT22;14238;49.496;8.154;2023-11-22T10:48:27;2.60;99.90
26595;DHT22;14238;49.496;8.154;2023-11-22T10:50:55;2.60;99.90
26595;DHT22;14238;49.496;8.154;2023-11-22T10:53:33;2.70;99.90
26595;DHT22;14238;49.496;8.154;2023-11-22T10:56:06;2.70;99.90
26595;DHT22;14238;49.496;8.154;2023-11-22T10:59:11;2.70;99.90
26595;DHT22;14238;49.496;8.154;2023-11-22T11:01:29;2.70;99.90
26595;DHT22;14238;49.496;8.154;2023-11-22T11:04:00;2.70;99.90
26595;DHT22;14238;49.496;8.154;2023-11-22T11:06:31;2.80;99.90
26595;DHT22;14238;49.496;8.154;2023-11-22T11:09:00;2.90;99.90
26595;DHT22;14238;49.496;8.154;2023-11-22T11:11:27;2.90;99.90
26595;DHT22;14238;49.496;8.154;2023-11-22T11:13:53;2.80;99.90
26595;DHT22;14238;49.496;8.154;2023-11-22T11:16:20;2.80;99.90
26595;DHT22;14238;49.496;8.154;2023-11-22T11:18:47;2.80;99.90
26595;DHT22;14238;49.496;8.154;2023-11-22T11:21:15;2.80;99.90
26595;DHT22;14238;49.496;8.154;2023-11-22T11:23:40;2.70;99.90
26595;DHT22;14238;49.496;8.154;2023-11-22T11:26:16;2.80;99.90
26595;DHT22;14238;49.496;8.154;2023-11-22T11:28:47;3.00;99.90
26595;DHT22;14238;49.496;8.154;2023-11-22T11:31:14;3.00;99.90
26595;DHT22;14238;49.496;8.154;2023-11-22T11:36:29;2.90;99.90
26595;DHT22;14238;49.496;8.154;2023-11-22T11:38:58;2.90;99.90
26595;DHT22;14238;49.496;8.154;2023-11-22T11:41:26;2.80;99.90
26595;DHT22;14238;49.496;8.154;2023-11-22T11:43:53;2.80;99.90
26595;DHT22;14238;49.496;8.154;2023-11-22T11:46:18;2.80;99.90
26595;DHT22;14238;49.496;8.154;2023-11-22T11:48:51;2.80;99.90
26595;DHT22;14238;49.496;8.154;2023-11-22T11:51:19;2.90;99.90
26595;DHT22;14238;49.496;8.154;2023-11-22T11:53:45;2.90;99.90
26595;DHT22;14238;49.496;8.154;2023-11-22T11:56:11;3.00;99.90
26595;DHT22;14238;49.496;8.154;2023-11-22T11:58:38;3.00;99.90
26595;DHT22;14238;49.496;8.154;2023-11-22T12:01:06;3.10;99.90
26595;DHT22;14238;49.496;8.154;2023-11-22T12:03:35;3.20;99.90
26595;DHT22;14238;49.496;8.154;2023-11-22T12:06:01;3.20;99.90
26595;DHT22;14238;49.496;8.154;2023-11-22T12:08:27;3.00;99.90
26595;DHT22;14238;49.496;8.154;2023-11-22T12:10:56;3.00;99.90
26595;DHT22;14238;49.496;8.154;2023-11-22T12:13:24;3.10;99.90
26595;DHT22;14238;49.496;8.154;2023-11-22T12:15:51;3.10;99.90
26595;DHT22;14238;49.496;8.154;2023-11-22T12:18:19;3.30;99.90
26595;DHT22;14238;49.496;8.154;2023-11-22T12:20:57;3.30;99.90
26595;DHT22;14238;49.496;8.154;2023-11-22T12:23:27;3.30;99.90
26595;DHT22;14238;49.496;8.154;2023-11-22T12:25:56;3.20;99.90
26595;DHT22;14238;49.496;8.154;2023-11-22T12:28:31;3.20;99.90
26595;DHT22;14238;49.496;8.154;2023-11-22T12:31:13;3.10;99.90
26595;DHT22;14238;49.496;8.154;2023-11-22T12:33:40;3.20;99.90
26595;DHT22;14238;49.496;8.154;2023-11-22T12:36:07;3.30;99.90
26595;DHT22;14238;49.496;8.154;2023-11-22T12:38:37;3.30;99.90
26595;DHT22;14238;49.496;8.154;2023-11-22T12:41:05;3.30;99.90
26595;DHT22;14238;49.496;8.154;2023-11-22T12:43:32;3.30;99.90
26595;DHT22;14238;49.496;8.154;2023-11-22T12:45:59;3.20;99.90
26595;DHT22;14238;49.496;8.154;2023-11-22T12:48:26;3.20;99.90
26595;DHT22;14238;49.496;8.154;2023-11-22T12:50:55;3.30;99.90
26595;DHT22;14238;49.496;8.154;2023-11-22T12:53:21;3.40;99.90
26595;DHT22;14238;49.496;8.154;2023-11-22T12:55:49;3.50;99.90
26595;DHT22;14238;49.496;8.154;2023-11-22T12:58:16;3.30;99.90
26595;DHT22;14238;49.496;8.154;2023-11-22T13:00:43;3.40;99.90
26595;DHT22;14238;49.496;8.154;2023-11-22T13:03:09;3.40;99.90
26595;DHT22;14238;49.496;8.154;2023-11-22T13:05:36;4.30;99.90
26595;DHT22;14238;49.496;8.154;2023-11-22T13:08:02;5.40;99.90
26595;DHT22;14238;49.496;8.154;2023-11-22T13:10:29;5.20;99.90
26595;DHT22;14238;49.496;8.154;2023-11-22T13:12:55;4.80;99.90
26595;DHT22;14238;49.496;8.154;2023-11-22T13:15:21;4.20;99.90
26595;DHT22;14238;49.496;8.154;2023-11-22T13:17:52;4.10;99.90
26595;DHT22;14238;49.496;8.154;2023-11-22T13:20:24;4.00;99.90
26595;DHT22;14238;49.496;8.154;2023-11-22T13:22:54;3.70;99.90
26595;DHT22;14238;49.496;8.154;2023-11-22T13:25:20;3.70;99.90
26595;DHT22;14238;49.496;8.154;2023-11-22T13:27:47;3.60;99.90
26595;DHT22;14238;49.496;8.154;2023-11-22T13:30:14;3.50;99.90
26595;DHT22;14238;49.496;8.154;2023-11-22T13:32:40;3.60;99.90
26595;DHT22;14238;49.496;8.154;2023-11-22T13:35:09;3.60;99.90
26595;DHT22;14238;49.496;8.154;2023-11-22T13:37:41;3.60;99.90
26595;DHT22;14238;49.496;8.154;2023-11-22T13:40:11;3.80;99.90
26595;DHT22;14238;49.496;8.154;2023-11-22T13:42:43;4.00;99.90
26595;DHT22;14238;49.496;8.154;2023-11-22T13:45:10;3.90;99.90
26595;DHT22;14238;49.496;8.154;2023-11-22T13:47:35;3.90;99.90
26595;DHT22;14238;49.496;8.154;2023-11-22T13:50:01;3.90;99.90
26595;DHT22;14238;49.496;8.154;2023-11-22T13:52:29;3.80;99.90
26595;DHT22;14238;49.496;8.154;2023-11-22T13:54:54;3.90;99.90
26595;DHT22;14238;49.496;8.154;2023-11-22T13:57:22;3.90;99.90
26595;DHT22;14238;49.496;8.154;2023-11-22T13:59:48;3.80;99.90
26595;DHT22;14238;49.496;8.154;2023-11-22T14:02:13;3.60;99.90
26595;DHT22;14238;49.496;8.154;2023-11-22T14:04:39;3.50;99.90
26595;DHT22;14238;49.496;8.154;2023-11-22T14:07:05;3.40;99.90
26595;DHT22;14238;49.496;8.154;2023-11-22T14:09:32;3.40;99.90
26595;DHT22;14238;49.496;8.154;2023-11-22T14:12:01;3.30;99.90
26595;DHT22;14238;49.496;8.154;2023-11-22T14:14:26;3.40;99.90
26595;DHT22;14238;49.496;8.154;2023-11-22T14:16:52;3.40;99.90
26595;DHT22;14238;49.496;8.154;2023-11-22T14:19:18;3.50;99.90
26595;DHT22;14238;49.496;8.154;2023-11-22T14:21:44;3.40;99.90
26595;DHT22;14238;49.496;8.154;2023-11-22T14:24:10;3.40;99.90
26595;DHT22;14238;49.496;8.154;2023-11-22T14:26:36;3.40;99.90
26595;DHT22;14238;49.496;8.154;2023-11-22T14:29:02;3.40;99.90
26595;DHT22;14238;49.496;8.154;2023-11-22T14:31:29;3.40;99.90
26595;DHT22;14238;49.496;8.154;2023-11-22T14:33:55;3.30;99.90
26595;DHT22;14238;49.496;8.154;2023-11-22T14:38:48;3.10;99.90
26595;DHT22;14238;49.496;8.154;2023-11-22T14:41:20;3.00;99.90
26595;DHT22;14238;49.496;8.154;2023-11-22T14:43:45;2.90;99.90
26595;DHT22;14238;49.496;8.154;2023-11-22T14:46:11;2.80;99.90
26595;DHT22;14238;49.496;8.154;2023-11-22T14:48:36;2.60;99.90
26595;DHT22;14238;49.496;8.154;2023-11-22T14:51:03;2.60;99.90
26595;DHT22;14238;49.496;8.154;2023-11-22T14:53:28;2.60;99.90
26595;DHT22;14238;49.496;8.154;2023-11-22T14:55:54;2.50;99.90
26595;DHT22;14238;49.496;8.154;2023-11-22T14:58:19;2.50;99.90
26595;DHT22;14238;49.496;8.154;2023-11-22T15:00:45;2.50;99.90
26595;DHT22;14238;49.496;8.154;2023-11-22T15:03:10;2.50;99.90
26595;DHT22;14238;49.496;8.154;2023-11-22T15:05:36;2.40;99.90
26595;DHT22;14238;49.496;8.154;2023-11-22T15:08:02;2.40;99.90
26595;DHT22;14238;49.496;8.154;2023-11-22T15:10:28;2.40;99.90
26595;DHT22;14238;49.496;8.154;2023-11-22T15:12:54;2.20;99.90
26595;DHT22;14238;49.496;8.154;2023-11-22T15:15:20;2.10;99.90
26595;DHT22;14238;49.496;8.154;2023-11-22T15:17:49;2.10;99.90
26595;DHT22;14238;49.496;8.154;2023-11-22T15:20:15;2.00;99.90
26595;DHT22;14238;49.496;8.154;2023-11-22T15:22:41;1.80;99.90
26595;DHT22;14238;49.496;8.154;2023-11-22T15:25:07;1.70;99.90
26595;DHT22;14238;49.496;8.154;2023-11-22T15:27:35;1.70;99.90
26595;DHT22;14238;49.496;8.154;2023-11-22T15:30:01;1.70;99.90
26595;DHT22;14238;49.496;8.154;2023-11-22T15:32:27;1.70;99.90
26595;DHT22;14238;49.496;8.154;2023-11-22T15:34:53;1.50;99.90
26595;DHT22;14238;49.496;8.154;2023-11-22T15:37:19;1.50;99.90
26595;DHT22;14238;49.496;8.154;2023-11-22T15:39:44;1.40;99.90
26595;DHT22;14238;49.496;8.154;2023-11-22T15:42:10;1.30;99.90
26595;DHT22;14238;49.496;8.154;2023-11-22T15:44:36;1.20;99.90
26595;DHT22;14238;49.496;8.154;2023-11-22T15:47:01;1.30;99.90
26595;DHT22;14238;49.496;8.154;2023-11-22T15:49:34;1.20;99.90